createdAt,value
2023-04-03T00:01:58.378Z,102581.47
2023-04-03T00:04:44.823Z,102580.47
2023-04-03T00:07:31.831Z,102586.22
2023-04-03T00:10:18.726Z,102580.63
2023-04-03T00:13:06.029Z,102573.25
2023-04-03T00:15:53.098Z,102577.22
2023-04-03T00:18:42.206Z,102578.00
2023-04-03T00:21:29.542Z,102588.94
2023-04-03T00:24:16.325Z,102585.25
2023-04-03T00:27:03.064Z,102583.06
2023-04-03T00:29:49.940Z,102584.81
2023-04-03T00:32:37.086Z,102581.94
2023-04-03T00:35:26.309Z,102587.84
2023-04-03T00:38:13.727Z,102586.34
2023-04-03T00:41:00.140Z,102582.59
2023-04-03T00:43:47.086Z,102579.69
2023-04-03T00:46:33.519Z,102582.19
2023-04-03T00:49:20.513Z,102588.16
2023-04-03T00:52:13.530Z,102582.56
2023-04-03T00:55:06.060Z,102586.41
2023-04-03T00:57:54.535Z,102585.97
2023-04-03T01:00:44.514Z,102586.69
2023-04-03T01:03:32.592Z,102580.59
2023-04-03T01:06:26.246Z,102588.31
2023-04-03T01:09:14.400Z,102588.41
2023-04-03T01:12:17.071Z,102586.78
2023-04-03T01:15:07.739Z,102583.13
2023-04-03T01:17:57.451Z,102589.47
2023-04-03T01:21:08.571Z,102586.13
2023-04-03T01:24:08.770Z,102588.53
2023-04-03T01:26:56.875Z,102584.91
2023-04-03T01:29:45.089Z,102586.72
2023-04-03T01:32:32.946Z,102586.69
2023-04-03T01:35:19.555Z,102590.84
2023-04-03T01:38:06.294Z,102588.16
2023-04-03T01:40:53.182Z,102585.59
2023-04-03T01:43:39.976Z,102585.47
2023-04-03T01:46:27.137Z,102581.66
2023-04-03T01:49:15.505Z,102588.97
2023-04-03T01:52:02.345Z,102579.09
2023-04-03T01:54:49.155Z,102590.22
2023-04-03T01:57:35.847Z,102594.59
2023-04-03T02:00:23.064Z,102601.25
2023-04-03T02:03:10.704Z,102598.91
2023-04-03T02:05:58.647Z,102607.84
2023-04-03T02:08:45.084Z,102603.22
2023-04-03T02:11:32.030Z,102611.69
2023-04-03T02:14:18.515Z,102607.41
2023-04-03T02:17:09.594Z,102605.59
2023-04-03T02:19:56.539Z,102605.81
2023-04-03T02:22:45.142Z,102601.56
2023-04-03T02:25:33.294Z,102612.88
2023-04-03T02:28:19.806Z,102615.41
2023-04-03T02:31:07.727Z,102614.69
2023-04-03T02:33:55.812Z,102616.97
2023-04-03T02:36:42.858Z,102612.31
2023-04-03T02:39:32.512Z,102624.78
2023-04-03T02:42:20.517Z,102627.84
2023-04-03T02:45:08.207Z,102629.50
2023-04-03T02:47:55.469Z,102624.28
2023-04-03T02:50:42.014Z,102627.84
2023-04-03T02:53:28.854Z,102634.88
2023-04-03T02:56:18.128Z,102637.06
2023-04-03T02:59:05.157Z,102631.78
2023-04-03T03:01:53.649Z,102637.25
2023-04-03T03:04:40.456Z,102639.88
2023-04-03T03:07:27.269Z,102636.41
2023-04-03T03:10:14.013Z,102641.22
2023-04-03T03:13:02.325Z,102642.38
2023-04-03T03:15:50.611Z,102644.22
2023-04-03T03:18:38.218Z,102648.13
2023-04-03T03:21:24.589Z,102652.88
2023-04-03T03:24:13.099Z,102650.56
2023-04-03T03:26:59.531Z,102649.88
2023-04-03T03:29:47.660Z,102646.47
2023-04-03T03:32:34.453Z,102653.38
2023-04-03T03:35:22.193Z,102660.38
2023-04-03T03:38:09.023Z,102656.50
2023-04-03T03:40:56.044Z,102652.22
2023-04-03T03:43:44.028Z,102655.41
2023-04-03T03:46:33.877Z,102655.25
2023-04-03T03:49:20.927Z,102660.31
2023-04-03T03:52:07.388Z,102658.72
2023-04-03T03:54:54.198Z,102657.41
2023-04-03T03:57:41.004Z,102662.72
2023-04-03T04:00:28.327Z,102651.22
2023-04-03T04:03:17.949Z,102658.81
2023-04-03T04:06:07.894Z,102654.06
2023-04-03T04:08:55.133Z,102654.81
2023-04-03T04:11:41.838Z,102659.47
2023-04-03T04:14:31.396Z,102657.78
2023-04-03T04:17:18.979Z,102660.31
2023-04-03T04:20:08.306Z,102657.59
2023-04-03T04:22:55.771Z,102655.66
2023-04-03T04:25:43.631Z,102661.53
2023-04-03T04:28:30.946Z,102659.34
2023-04-03T04:31:19.960Z,102659.03
2023-04-03T04:34:06.582Z,102669.47
2023-04-03T04:36:55.941Z,102662.59
2023-04-03T04:39:42.625Z,102670.03
2023-04-03T04:42:29.469Z,102667.91
2023-04-03T04:45:16.720Z,102664.31
2023-04-03T04:48:06.213Z,102670.38
2023-04-03T04:50:52.958Z,102674.19
2023-04-03T04:53:41.036Z,102673.06
2023-04-03T04:56:29.303Z,102675.44
2023-04-03T04:59:18.793Z,102684.38
2023-04-03T05:02:06.678Z,102682.00
2023-04-03T05:04:53.811Z,102684.94
2023-04-03T05:07:47.032Z,102673.78
2023-04-03T05:10:35.538Z,102680.31
2023-04-03T05:13:22.539Z,102677.78
2023-04-03T05:16:09.428Z,102683.94
2023-04-03T05:18:56.639Z,102688.28
2023-04-03T05:21:43.853Z,102688.06
2023-04-03T05:24:34.094Z,102693.44
2023-04-03T05:27:24.585Z,102691.84
2023-04-03T05:30:15.822Z,102699.16
2023-04-03T05:33:06.302Z,102699.50
2023-04-03T05:36:05.742Z,102697.75
2023-04-03T05:38:57.357Z,102696.44
2023-04-03T05:41:46.758Z,102700.06
2023-04-03T05:44:35.447Z,102703.31
2023-04-03T05:47:22.483Z,102708.88
2023-04-03T05:50:10.148Z,102704.28
2023-04-03T05:52:59.956Z,102706.25
2023-04-03T05:55:48.920Z,102710.81
2023-04-03T05:58:35.813Z,102707.25
2023-04-03T06:01:24.611Z,102719.34
2023-04-03T06:04:11.446Z,102714.69
2023-04-03T06:06:59.807Z,102688.97
2023-04-03T06:09:47.049Z,102720.28
2023-04-03T06:12:34.313Z,102718.06
2023-04-03T06:15:21.472Z,102723.91
2023-04-03T06:18:09.700Z,102720.28
2023-04-03T06:20:56.411Z,102733.13
2023-04-03T06:23:43.116Z,102726.56
2023-04-03T06:26:30.248Z,102723.88
2023-04-03T06:29:16.935Z,102734.00
2023-04-03T06:32:03.773Z,102734.22
2023-04-03T06:34:52.371Z,102731.97
2023-04-03T06:37:38.929Z,102732.84
2023-04-03T06:40:27.883Z,102735.44
2023-04-03T06:43:14.346Z,102724.38
2023-04-03T06:46:01.228Z,102732.91
2023-04-03T06:48:48.418Z,102744.22
2023-04-03T06:51:37.414Z,102751.31
2023-04-03T06:54:24.142Z,102749.34
2023-04-03T06:57:11.203Z,102715.66
2023-04-03T06:59:57.900Z,102750.53
2023-04-03T07:02:44.669Z,102767.91
2023-04-03T07:05:31.844Z,102765.19
2023-04-03T07:08:19.826Z,102765.66
2023-04-03T07:11:07.628Z,102769.69
2023-04-03T07:13:55.057Z,102770.41
2023-04-03T07:16:42.654Z,102774.16
2023-04-03T07:19:29.476Z,102766.16
2023-04-03T07:22:16.119Z,102769.72
2023-04-03T07:25:05.544Z,102774.66
2023-04-03T07:27:52.543Z,102784.72
2023-04-03T07:30:44.782Z,102777.50
2023-04-03T07:33:32.054Z,102784.19
2023-04-03T07:36:21.613Z,102784.44
2023-04-03T07:39:09.263Z,102783.53
2023-04-03T07:41:57.546Z,102744.59
2023-04-03T07:44:44.424Z,102784.56
2023-04-03T07:47:31.451Z,102788.34
2023-04-03T07:50:18.058Z,102792.09
2023-04-03T07:53:04.921Z,102786.50
2023-04-03T07:55:56.532Z,102789.38
2023-04-03T07:58:44.638Z,102802.91
2023-04-03T08:01:33.579Z,102788.88
2023-04-03T08:04:20.841Z,102788.50
2023-04-03T08:07:07.940Z,102791.81
2023-04-03T08:09:54.489Z,102791.09
2023-04-03T08:12:41.453Z,102763.38
2023-04-03T08:15:29.866Z,102797.16
2023-04-03T08:18:17.084Z,102800.25
2023-04-03T08:21:07.087Z,102807.22
2023-04-03T08:23:54.296Z,102805.31
2023-04-03T08:26:40.734Z,102807.00
2023-04-03T08:29:27.520Z,102812.41
2023-04-03T08:32:15.745Z,102809.88
2023-04-03T08:35:02.633Z,102801.25
2023-04-03T08:37:49.372Z,102786.34
2023-04-03T08:40:36.588Z,102787.16
2023-04-03T08:43:35.565Z,102791.13
2023-04-03T08:46:27.177Z,102782.75
2023-04-03T08:49:22.858Z,102789.66
2023-04-03T08:52:16.168Z,102790.22
2023-04-03T08:55:06.303Z,102787.78
2023-04-03T08:57:59.592Z,102781.34
2023-04-03T09:00:50.917Z,102757.97
2023-04-03T09:03:41.892Z,102783.63
2023-04-03T09:06:33.938Z,102783.59
2023-04-03T09:09:33.408Z,102782.59
2023-04-03T09:12:26.818Z,102780.00
2023-04-03T09:15:31.416Z,102772.03
2023-04-03T09:18:29.318Z,102776.91
2023-04-03T09:21:23.000Z,102774.88
2023-04-03T09:24:14.117Z,102778.75
2023-04-03T09:27:06.912Z,102765.59
2023-04-03T09:29:56.466Z,102776.22
2023-04-03T09:32:43.412Z,102766.97
2023-04-03T09:35:44.891Z,102778.91
2023-04-03T09:38:35.640Z,102780.41
2023-04-03T09:41:24.913Z,102783.84
2023-04-03T09:44:23.881Z,102775.94
2023-04-03T09:47:22.037Z,102776.03
2023-04-03T09:50:22.863Z,102764.91
2023-04-03T09:53:30.416Z,102780.75
2023-04-03T09:56:27.926Z,102751.19
2023-04-03T09:59:18.057Z,102770.63
2023-04-03T10:02:21.996Z,102761.13
2023-04-03T10:05:31.984Z,102759.66
2023-04-03T10:08:25.764Z,102752.19
2023-04-03T10:11:15.524Z,102755.66
2023-04-03T10:14:07.849Z,102750.69
2023-04-03T10:17:04.532Z,102748.34
2023-04-03T10:19:55.628Z,102751.47
2023-04-03T10:22:49.266Z,102744.53
2023-04-03T10:25:43.079Z,102746.75
2023-04-03T10:28:37.536Z,102750.31
2023-04-03T10:31:30.035Z,102755.56
2023-04-03T10:34:25.278Z,102752.84
2023-04-03T10:37:20.774Z,102747.13
2023-04-03T10:40:21.885Z,102737.00
2023-04-03T10:43:17.974Z,102745.88
2023-04-03T10:46:12.309Z,102743.47
2023-04-03T10:49:13.034Z,102746.66
2023-04-03T10:52:08.343Z,102744.78
2023-04-03T10:55:07.733Z,102739.25
2023-04-03T10:57:56.544Z,102729.81
2023-04-03T11:00:48.156Z,102734.50
2023-04-03T11:03:38.951Z,102723.72
2023-04-03T11:06:30.758Z,102736.75
2023-04-03T11:09:25.361Z,102724.16
2023-04-03T11:12:17.378Z,102727.75
2023-04-03T11:15:05.802Z,102656.97
2023-04-03T11:17:56.289Z,102728.69
2023-04-03T11:20:46.875Z,102725.84
2023-04-03T11:23:49.088Z,102717.59
2023-04-03T11:26:41.092Z,102714.84
2023-04-03T11:29:35.816Z,102714.56
2023-04-03T11:32:56.850Z,102717.06
2023-04-03T11:35:47.485Z,102701.16
2023-04-03T11:38:40.581Z,102706.81
2023-04-03T11:41:29.895Z,102714.56
2023-04-03T11:44:35.594Z,102693.97
2023-04-03T11:47:46.310Z,102700.41
2023-04-03T11:50:42.474Z,102693.38
2023-04-03T11:53:33.338Z,102699.78
2023-04-03T11:56:37.276Z,102693.63
2023-04-03T11:59:30.865Z,102694.44
2023-04-03T12:05:31.529Z,102698.59
2023-04-03T12:08:25.920Z,102685.22
2023-04-03T12:11:18.556Z,102690.47
2023-04-03T12:14:16.663Z,102694.84
2023-04-03T12:17:03.489Z,102689.50
2023-04-03T12:19:50.317Z,102695.69
2023-04-03T12:22:37.198Z,102694.78
2023-04-03T12:25:50.817Z,102686.56
2023-04-03T12:28:41.982Z,102648.72
2023-04-03T12:31:58.234Z,102696.28
2023-04-03T12:34:53.516Z,102687.09
2023-04-03T12:37:51.373Z,102686.50
2023-04-03T12:40:44.980Z,102687.34
2023-04-03T12:43:52.551Z,102689.16
2023-04-03T12:46:45.839Z,102691.19
2023-04-03T12:49:38.382Z,102679.63
2023-04-03T12:52:35.715Z,102691.16
2023-04-03T12:55:23.192Z,102685.97
2023-04-03T12:58:18.532Z,102682.56
2023-04-03T13:01:11.574Z,102692.84
2023-04-03T13:04:00.761Z,102691.75
2023-04-03T13:06:47.429Z,102694.91
2023-04-03T13:09:34.615Z,102692.41
2023-04-03T13:12:21.788Z,102681.03
2023-04-03T13:15:16.867Z,102683.53
2023-04-03T13:18:03.704Z,102674.88
2023-04-03T13:20:52.341Z,102674.88
2023-04-03T13:23:44.922Z,102674.97
2023-04-03T13:26:34.993Z,102672.41
2023-04-03T13:29:31.030Z,102664.84
2023-04-03T13:32:21.985Z,102657.59
2023-04-03T13:35:27.732Z,102664.84
2023-04-03T13:38:27.014Z,102652.69
2023-04-03T13:41:31.298Z,102627.22
2023-04-03T13:44:30.908Z,102653.78
2023-04-03T13:47:21.687Z,102638.72
2023-04-03T13:50:17.993Z,102643.22
2023-04-03T13:53:13.127Z,102636.91
2023-04-03T13:56:07.914Z,102639.50
2023-04-03T13:58:57.981Z,102641.88
2023-04-03T14:01:49.624Z,102653.47
2023-04-03T14:04:49.541Z,102641.16
2023-04-03T14:07:36.420Z,102647.31
2023-04-03T14:10:23.424Z,102646.75
2023-04-03T14:13:15.837Z,102645.16
2023-04-03T14:16:15.221Z,102652.06
2023-04-03T14:19:02.765Z,102652.81
2023-04-03T14:21:50.187Z,102646.84
2023-04-03T14:24:36.986Z,102648.53
2023-04-03T14:27:26.157Z,102655.22
2023-04-03T14:30:21.775Z,102649.28
2023-04-03T14:33:08.475Z,102644.09
2023-04-03T14:35:56.555Z,102637.66
2023-04-03T14:38:46.125Z,102647.25
2023-04-03T14:41:32.946Z,102638.69
2023-04-03T14:44:19.477Z,102633.31
2023-04-03T14:47:11.867Z,102634.22
2023-04-03T14:50:01.999Z,102634.38
2023-04-03T14:52:51.211Z,102628.19
2023-04-03T14:55:37.656Z,102625.38
2023-04-03T14:58:24.602Z,102622.00
2023-04-03T15:01:13.171Z,102631.78
2023-04-03T15:04:01.192Z,102627.44
2023-04-03T15:06:48.874Z,102637.19
2023-04-03T15:09:39.167Z,102620.25
2023-04-03T15:12:25.964Z,102631.91
2023-04-03T15:15:12.931Z,102625.63
2023-04-03T15:18:00.152Z,102617.22
2023-04-03T15:20:49.194Z,102621.78
2023-04-03T15:23:35.860Z,102607.56
2023-04-03T15:26:22.771Z,102607.72
2023-04-03T15:29:09.577Z,102612.09
2023-04-03T15:31:56.845Z,102611.84
2023-04-03T15:34:43.531Z,102612.09
2023-04-03T15:37:31.555Z,102604.69
2023-04-03T15:40:18.468Z,102615.50
2023-04-03T15:43:05.068Z,102603.50
2023-04-03T15:45:52.690Z,102601.56
2023-04-03T15:48:39.683Z,102608.69
2023-04-03T15:51:26.489Z,102609.50
2023-04-03T15:54:14.772Z,102612.34
2023-04-03T15:57:01.469Z,102612.28
2023-04-03T15:59:48.351Z,102612.13
2023-04-03T16:02:35.988Z,102613.31
2023-04-03T16:05:22.873Z,102610.84
2023-04-03T16:08:10.112Z,102615.25
2023-04-03T16:10:57.969Z,102617.78
2023-04-03T16:13:44.950Z,102618.69
2023-04-03T16:16:32.050Z,102616.16
2023-04-03T16:19:19.563Z,102612.63
2023-04-03T16:22:06.659Z,102621.50
2023-04-03T16:24:53.245Z,102620.31
2023-04-03T16:27:41.897Z,102627.41
2023-04-03T16:30:28.681Z,102624.41
2023-04-03T16:33:15.694Z,102625.28
2023-04-03T16:36:02.777Z,102536.97
2023-04-03T16:38:49.206Z,102616.66
2023-04-03T16:41:36.050Z,102621.03
2023-04-03T16:44:24.388Z,102625.50
2023-04-03T16:47:11.918Z,102622.84
2023-04-03T16:49:58.662Z,102615.91
2023-04-03T16:52:47.467Z,102624.56
2023-04-03T16:55:34.374Z,102629.03
2023-04-03T16:58:23.413Z,102624.59
2023-04-03T17:01:13.299Z,102560.16
2023-04-03T17:03:59.976Z,102621.00
2023-04-03T17:06:46.997Z,102626.25
2023-04-03T17:09:33.776Z,102623.28
2023-04-03T17:12:20.756Z,102626.81
2023-04-03T17:15:08.769Z,102623.34
2023-04-03T17:17:57.138Z,102623.03
2023-04-03T17:20:43.384Z,102626.44
2023-04-03T17:23:30.502Z,102629.16
2023-04-03T17:26:17.410Z,102624.81
2023-04-03T17:29:04.793Z,102626.31
2023-04-03T17:31:51.344Z,102629.88
2023-04-03T17:34:40.017Z,102621.88
2023-04-03T17:37:26.764Z,102632.19
2023-04-03T17:40:15.083Z,102631.31
2023-04-03T17:43:01.857Z,102636.44
2023-04-03T17:45:48.595Z,102630.13
2023-04-03T17:48:36.025Z,102636.16
2023-04-03T17:51:27.075Z,102627.25
2023-04-03T17:54:13.693Z,102626.41
2023-04-03T17:57:00.485Z,102630.91
2023-04-03T17:59:47.380Z,102630.88
2023-04-03T18:02:34.077Z,102633.59
2023-04-03T18:05:21.168Z,102633.41
2023-04-03T18:08:09.253Z,102628.34
2023-04-03T18:10:56.228Z,102633.84
2023-04-03T18:13:43.280Z,102636.31
2023-04-03T18:16:30.202Z,102630.00
2023-04-03T18:19:23.411Z,102642.97
2023-04-03T18:22:15.616Z,102648.97
2023-04-03T18:25:03.453Z,102638.72
2023-04-03T18:27:51.281Z,102643.75
2023-04-03T18:30:38.348Z,102644.84
2023-04-03T18:33:25.153Z,102639.72
2023-04-03T18:36:12.204Z,102646.00
2023-04-03T18:38:58.660Z,102643.31
2023-04-03T18:41:47.805Z,102653.69
2023-04-03T18:44:35.707Z,102640.69
2023-04-03T18:47:22.261Z,102640.75
2023-04-03T18:50:10.525Z,102645.06
2023-04-03T18:52:56.896Z,102655.19
2023-04-03T18:55:43.732Z,102650.97
2023-04-03T18:58:32.220Z,102640.50
2023-04-03T19:01:20.047Z,102639.56
2023-04-03T19:04:07.154Z,102649.03
2023-04-03T19:06:54.180Z,102648.84
2023-04-03T19:09:41.327Z,102630.53
2023-04-03T19:12:27.917Z,102641.31
2023-04-03T19:15:16.580Z,102643.69
2023-04-03T19:18:03.570Z,102645.47
2023-04-03T19:20:50.318Z,102651.56
2023-04-03T19:23:37.352Z,102642.59
2023-04-03T19:26:23.808Z,102642.44
2023-04-03T19:29:12.831Z,102637.16
2023-04-03T19:32:01.990Z,102637.84
2023-04-03T19:34:48.856Z,102640.38
2023-04-03T19:37:36.304Z,102639.88
2023-04-03T19:40:23.702Z,102637.81
2023-04-03T19:43:11.603Z,102638.56
2023-04-03T19:45:58.155Z,102646.66
2023-04-03T19:48:47.412Z,102609.81
2023-04-03T19:51:39.799Z,102637.00
2023-04-03T19:54:27.356Z,102637.75
2023-04-03T19:57:15.617Z,102634.84
2023-04-03T20:00:02.769Z,102638.50
2023-04-03T20:02:58.815Z,102643.44
2023-04-03T20:05:46.832Z,102644.22
2023-04-03T20:08:33.381Z,102644.06
2023-04-03T20:11:20.427Z,102651.09
2023-04-03T20:14:07.250Z,102640.44
2023-04-03T20:16:54.225Z,102645.13
2023-04-03T20:19:41.103Z,102638.97
2023-04-03T20:22:29.600Z,102648.09
2023-04-03T20:25:23.933Z,102608.59
2023-04-03T20:28:23.477Z,102650.41
2023-04-03T20:31:12.096Z,102637.41
2023-04-03T20:33:58.745Z,102640.53
2023-04-03T20:36:49.657Z,102636.75
2023-04-03T20:39:38.429Z,102635.94
2023-04-03T20:42:26.163Z,102644.28
2023-04-03T20:45:13.466Z,102640.69
2023-04-03T20:48:02.376Z,102641.44
2023-04-03T20:50:49.099Z,102647.03
2023-04-03T20:53:36.204Z,102639.13
2023-04-03T20:56:24.411Z,102635.81
2023-04-03T20:59:11.732Z,102638.16
2023-04-03T21:01:58.356Z,102634.81
2023-04-03T21:04:49.996Z,102632.81
2023-04-03T21:08:15.766Z,102634.88
2023-04-03T21:11:39.835Z,102634.78
2023-04-03T21:15:04.436Z,102644.56
2023-04-03T21:18:32.824Z,102634.56
2023-04-03T21:21:22.477Z,102640.94
2023-04-03T21:24:10.236Z,102637.44
2023-04-03T21:26:58.076Z,102635.06
2023-04-03T21:29:45.181Z,102632.13
2023-04-03T21:32:31.623Z,102636.16
2023-04-03T21:35:20.301Z,102634.44
2023-04-03T21:38:06.901Z,102637.88
2023-04-03T21:40:56.774Z,102641.06
2023-04-03T21:43:43.177Z,102633.97
2023-04-03T21:46:30.011Z,102635.41
2023-04-03T21:49:17.385Z,102636.09
2023-04-03T21:52:05.472Z,102634.41
2023-04-03T21:54:51.994Z,102630.97
2023-04-03T21:57:38.761Z,102632.56
2023-04-03T22:00:25.649Z,102629.94
2023-04-03T22:03:13.631Z,102634.84
2023-04-03T22:06:01.939Z,102494.69
2023-04-03T22:08:49.973Z,102633.00
2023-04-03T22:11:41.333Z,102629.31
2023-04-03T22:14:28.055Z,102636.38
2023-04-03T22:17:14.791Z,102631.03
2023-04-03T22:20:01.776Z,102633.59
2023-04-03T22:22:50.753Z,102631.03
2023-04-03T22:25:38.520Z,102637.81
2023-04-03T22:28:25.979Z,102638.44
2023-04-03T22:31:14.510Z,102635.56
2023-04-03T22:34:04.219Z,102631.94
2023-04-03T22:36:51.044Z,102624.91
2023-04-03T22:39:38.216Z,102622.94
2023-04-03T22:42:26.385Z,102629.41
2023-04-03T22:45:12.948Z,102638.69
2023-04-03T22:48:00.325Z,102635.22
2023-04-03T22:50:47.263Z,102631.94
2023-04-03T22:53:33.885Z,102636.81
2023-04-03T22:56:23.936Z,102626.81
2023-04-03T22:59:13.458Z,102631.78
2023-04-03T23:02:00.316Z,102630.88
2023-04-03T23:04:47.556Z,102629.41
2023-04-03T23:07:34.113Z,102626.34
2023-04-03T23:10:20.940Z,102624.16
2023-04-03T23:13:07.831Z,102636.22
2023-04-03T23:15:56.547Z,102627.28
2023-04-03T23:18:43.884Z,102631.13
2023-04-03T23:21:30.284Z,102629.94
2023-04-03T23:24:17.332Z,102622.38
2023-04-03T23:27:03.820Z,102635.00
2023-04-03T23:29:50.803Z,102639.34
2023-04-03T23:32:38.678Z,102638.75
2023-04-03T23:35:25.446Z,102633.13
2023-04-03T23:38:12.300Z,102640.13
2023-04-03T23:40:59.076Z,102625.91
2023-04-03T23:43:47.568Z,102638.50
2023-04-03T23:46:34.587Z,102631.84
2023-04-03T23:49:22.830Z,102636.97
2023-04-03T23:52:09.613Z,102634.28
2023-04-03T23:54:56.321Z,102633.06
2023-04-03T23:57:43.175Z,102630.97
